sensor_id;sensor_type;location;lat;lon;timestamp;P1;durP1;ratioP1;P2;durP2;ratioP2
61383;SDS011;63511;49.346;8.798;2022-12-05T00:01:27;37.22;;;16.20;;
61383;SDS011;63511;49.346;8.798;2022-12-05T00:03:57;32.72;;;16.05;;
61383;SDS011;63511;49.346;8.798;2022-12-05T00:06:24;32.65;;;17.40;;
61383;SDS011;63511;49.346;8.798;2022-12-05T00:08:51;35.72;;;17.23;;
61383;SDS011;63511;49.346;8.798;2022-12-05T00:11:21;43.20;;;20.52;;
61383;SDS011;63511;49.346;8.798;2022-12-05T00:13:52;37.80;;;18.45;;
61383;SDS011;63511;49.346;8.798;2022-12-05T00:16:20;39.92;;;19.45;;
61383;SDS011;63511;49.346;8.798;2022-12-05T00:18:47;41.20;;;18.65;;
61383;SDS011;63511;49.346;8.798;2022-12-05T00:21:17;39.00;;;19.67;;
61383;SDS011;63511;49.346;8.798;2022-12-05T00:23:44;40.35;;;21.20;;
61383;SDS011;63511;49.346;8.798;2022-12-05T00:26:10;45.85;;;20.88;;
61383;SDS011;63511;49.346;8.798;2022-12-05T00:28:37;42.13;;;21.30;;
61383;SDS011;63511;49.346;8.798;2022-12-05T00:31:21;50.83;;;21.63;;
61383;SDS011;63511;49.346;8.798;2022-12-05T00:33:48;44.72;;;21.80;;
61383;SDS011;63511;49.346;8.798;2022-12-05T00:36:15;49.92;;;24.40;;
61383;SDS011;63511;49.346;8.798;2022-12-05T00:38:42;49.67;;;22.98;;
61383;SDS011;63511;49.346;8.798;2022-12-05T00:41:09;50.80;;;24.15;;
61383;SDS011;63511;49.346;8.798;2022-12-05T00:43:36;42.67;;;21.63;;
61383;SDS011;63511;49.346;8.798;2022-12-05T00:46:02;55.63;;;22.73;;
61383;SDS011;63511;49.346;8.798;2022-12-05T00:48:29;44.20;;;22.10;;
61383;SDS011;63511;49.346;8.798;2022-12-05T00:53:27;48.17;;;22.83;;
61383;SDS011;63511;49.346;8.798;2022-12-05T00:55:53;50.25;;;21.08;;
61383;SDS011;63511;49.346;8.798;2022-12-05T01:00:52;55.45;;;21.70;;
61383;SDS011;63511;49.346;8.798;2022-12-05T01:03:17;53.78;;;21.35;;
61383;SDS011;63511;49.346;8.798;2022-12-05T01:05:43;43.55;;;19.90;;
61383;SDS011;63511;49.346;8.798;2022-12-05T01:08:08;52.47;;;20.70;;
61383;SDS011;63511;49.346;8.798;2022-12-05T01:10:36;55.50;;;20.90;;
61383;SDS011;63511;49.346;8.798;2022-12-05T01:13:04;58.83;;;21.83;;
61383;SDS011;63511;49.346;8.798;2022-12-05T01:15:29;61.25;;;24.58;;
61383;SDS011;63511;49.346;8.798;2022-12-05T01:17:54;58.60;;;23.95;;
61383;SDS011;63511;49.346;8.798;2022-12-05T01:20:20;61.28;;;22.40;;
61383;SDS011;63511;49.346;8.798;2022-12-05T01:22:45;53.97;;;23.27;;
61383;SDS011;63511;49.346;8.798;2022-12-05T01:25:13;51.00;;;20.85;;
61383;SDS011;63511;49.346;8.798;2022-12-05T01:27:40;58.70;;;22.92;;
61383;SDS011;63511;49.346;8.798;2022-12-05T01:30:05;61.47;;;24.10;;
61383;SDS011;63511;49.346;8.798;2022-12-05T01:32:31;61.72;;;24.38;;
61383;SDS011;63511;49.346;8.798;2022-12-05T01:34:57;51.08;;;23.73;;
61383;SDS011;63511;49.346;8.798;2022-12-05T01:37:22;55.75;;;24.63;;
61383;SDS011;63511;49.346;8.798;2022-12-05T01:39:49;57.55;;;24.02;;
61383;SDS011;63511;49.346;8.798;2022-12-05T01:42:17;50.03;;;23.52;;
61383;SDS011;63511;49.346;8.798;2022-12-05T01:47:10;53.95;;;21.60;;
61383;SDS011;63511;49.346;8.798;2022-12-05T01:49:38;55.83;;;22.15;;
61383;SDS011;63511;49.346;8.798;2022-12-05T01:52:07;54.13;;;22.63;;
61383;SDS011;63511;49.346;8.798;2022-12-05T01:54:38;54.97;;;24.63;;
61383;SDS011;63511;49.346;8.798;2022-12-05T01:57:05;58.40;;;22.80;;
61383;SDS011;63511;49.346;8.798;2022-12-05T01:59:37;60.25;;;24.60;;
61383;SDS011;63511;49.346;8.798;2022-12-05T02:02:06;57.22;;;24.38;;
61383;SDS011;63511;49.346;8.798;2022-12-05T02:04:37;58.83;;;22.90;;
61383;SDS011;63511;49.346;8.798;2022-12-05T02:07:18;59.65;;;22.85;;
61383;SDS011;63511;49.346;8.798;2022-12-05T02:09:44;56.17;;;23.85;;
61383;SDS011;63511;49.346;8.798;2022-12-05T02:12:14;55.35;;;22.98;;
61383;SDS011;63511;49.346;8.798;2022-12-05T02:14:50;60.40;;;23.58;;
61383;SDS011;63511;49.346;8.798;2022-12-05T02:20:26;62.30;;;26.17;;
61383;SDS011;63511;49.346;8.798;2022-12-05T02:23:16;71.20;;;27.65;;
61383;SDS011;63511;49.346;8.798;2022-12-05T02:31:55;67.03;;;26.15;;
61383;SDS011;63511;49.346;8.798;2022-12-05T02:37:11;81.25;;;29.00;;
61383;SDS011;63511;49.346;8.798;2022-12-05T02:45:09;75.50;;;29.17;;
61383;SDS011;63511;49.346;8.798;2022-12-05T02:47:52;65.63;;;26.88;;
61383;SDS011;63511;49.346;8.798;2022-12-05T02:50:22;67.55;;;27.30;;
61383;SDS011;63511;49.346;8.798;2022-12-05T02:52:55;68.35;;;26.90;;
61383;SDS011;63511;49.346;8.798;2022-12-05T02:55:23;71.80;;;28.02;;
61383;SDS011;63511;49.346;8.798;2022-12-05T02:57:53;61.80;;;25.90;;
61383;SDS011;63511;49.346;8.798;2022-12-05T03:00:24;62.15;;;24.58;;
61383;SDS011;63511;49.346;8.798;2022-12-05T03:02:50;57.97;;;24.27;;
61383;SDS011;63511;49.346;8.798;2022-12-05T03:08:03;54.83;;;22.73;;
61383;SDS011;63511;49.346;8.798;2022-12-05T03:10:32;58.38;;;23.90;;
61383;SDS011;63511;49.346;8.798;2022-12-05T03:13:11;61.78;;;25.02;;
61383;SDS011;63511;49.346;8.798;2022-12-05T03:15:43;60.20;;;23.67;;
61383;SDS011;63511;49.346;8.798;2022-12-05T03:18:33;61.97;;;23.48;;
61383;SDS011;63511;49.346;8.798;2022-12-05T03:21:04;61.90;;;25.38;;
61383;SDS011;63511;49.346;8.798;2022-12-05T03:23:40;66.45;;;24.08;;
61383;SDS011;63511;49.346;8.798;2022-12-05T03:26:16;60.80;;;23.45;;
61383;SDS011;63511;49.346;8.798;2022-12-05T03:31:15;56.70;;;23.75;;
61383;SDS011;63511;49.346;8.798;2022-12-05T03:33:49;63.72;;;24.40;;
61383;SDS011;63511;49.346;8.798;2022-12-05T03:36:22;55.67;;;22.08;;
61383;SDS011;63511;49.346;8.798;2022-12-05T03:39:07;61.85;;;23.40;;
61383;SDS011;63511;49.346;8.798;2022-12-05T03:41:41;62.47;;;23.35;;
61383;SDS011;63511;49.346;8.798;2022-12-05T03:44:20;62.47;;;22.60;;
61383;SDS011;63511;49.346;8.798;2022-12-05T03:47:03;50.55;;;21.50;;
61383;SDS011;63511;49.346;8.798;2022-12-05T03:49:40;55.67;;;23.25;;
61383;SDS011;63511;49.346;8.798;2022-12-05T03:52:14;51.60;;;22.08;;
61383;SDS011;63511;49.346;8.798;2022-12-05T03:54:45;48.63;;;21.13;;
61383;SDS011;63511;49.346;8.798;2022-12-05T03:59:45;45.78;;;19.88;;
61383;SDS011;63511;49.346;8.798;2022-12-05T04:02:22;46.50;;;19.05;;
61383;SDS011;63511;49.346;8.798;2022-12-05T04:04:55;47.13;;;20.48;;
61383;SDS011;63511;49.346;8.798;2022-12-05T04:07:30;38.72;;;19.98;;
61383;SDS011;63511;49.346;8.798;2022-12-05T04:10:04;43.63;;;19.92;;
61383;SDS011;63511;49.346;8.798;2022-12-05T04:12:40;49.95;;;20.23;;
61383;SDS011;63511;49.346;8.798;2022-12-05T04:15:14;41.75;;;19.70;;
61383;SDS011;63511;49.346;8.798;2022-12-05T04:20:20;38.67;;;18.65;;
61383;SDS011;63511;49.346;8.798;2022-12-05T04:23:15;38.90;;;17.80;;
61383;SDS011;63511;49.346;8.798;2022-12-05T04:25:46;45.80;;;19.58;;
61383;SDS011;63511;49.346;8.798;2022-12-05T04:28:31;42.35;;;19.25;;
61383;SDS011;63511;49.346;8.798;2022-12-05T04:31:23;43.38;;;19.42;;
61383;SDS011;63511;49.346;8.798;2022-12-05T04:33:55;38.90;;;17.25;;
61383;SDS011;63511;49.346;8.798;2022-12-05T04:39:07;47.65;;;18.85;;
61383;SDS011;63511;49.346;8.798;2022-12-05T04:41:37;37.53;;;17.73;;
61383;SDS011;63511;49.346;8.798;2022-12-05T04:44:08;45.28;;;19.67;;
61383;SDS011;63511;49.346;8.798;2022-12-05T04:46:40;44.60;;;18.52;;
61383;SDS011;63511;49.346;8.798;2022-12-05T04:49:10;39.50;;;18.80;;
61383;SDS011;63511;49.346;8.798;2022-12-05T04:51:41;51.15;;;19.98;;
61383;SDS011;63511;49.346;8.798;2022-12-05T04:54:17;44.15;;;20.05;;
61383;SDS011;63511;49.346;8.798;2022-12-05T04:56:45;55.33;;;20.83;;
61383;SDS011;63511;49.346;8.798;2022-12-05T04:59:14;53.85;;;20.75;;
61383;SDS011;63511;49.346;8.798;2022-12-05T05:01:49;49.47;;;21.45;;
61383;SDS011;63511;49.346;8.798;2022-12-05T05:04:39;50.97;;;21.33;;
61383;SDS011;63511;49.346;8.798;2022-12-05T05:07:09;45.03;;;20.10;;
61383;SDS011;63511;49.346;8.798;2022-12-05T05:09:36;48.83;;;20.90;;
61383;SDS011;63511;49.346;8.798;2022-12-05T05:12:05;51.50;;;20.38;;
61383;SDS011;63511;49.346;8.798;2022-12-05T05:14:33;56.10;;;20.48;;
61383;SDS011;63511;49.346;8.798;2022-12-05T05:16:58;50.88;;;21.75;;
61383;SDS011;63511;49.346;8.798;2022-12-05T05:19:28;49.92;;;21.48;;
61383;SDS011;63511;49.346;8.798;2022-12-05T05:21:56;48.10;;;21.15;;
61383;SDS011;63511;49.346;8.798;2022-12-05T05:24:21;48.47;;;21.25;;
61383;SDS011;63511;49.346;8.798;2022-12-05T05:26:47;53.78;;;21.00;;
61383;SDS011;63511;49.346;8.798;2022-12-05T05:29:13;43.30;;;19.45;;
61383;SDS011;63511;49.346;8.798;2022-12-05T05:31:39;49.67;;;21.25;;
61383;SDS011;63511;49.346;8.798;2022-12-05T05:34:09;53.92;;;21.85;;
61383;SDS011;63511;49.346;8.798;2022-12-05T05:36:34;53.15;;;22.52;;
61383;SDS011;63511;49.346;8.798;2022-12-05T05:39:00;52.22;;;21.70;;
61383;SDS011;63511;49.346;8.798;2022-12-05T05:41:29;56.35;;;21.85;;
61383;SDS011;63511;49.346;8.798;2022-12-05T05:43:58;49.65;;;20.50;;
61383;SDS011;63511;49.346;8.798;2022-12-05T05:46:25;51.55;;;20.20;;
61383;SDS011;63511;49.346;8.798;2022-12-05T05:48:53;52.42;;;22.35;;
61383;SDS011;63511;49.346;8.798;2022-12-05T05:51:21;52.38;;;22.63;;
61383;SDS011;63511;49.346;8.798;2022-12-05T05:53:51;62.33;;;21.90;;
61383;SDS011;63511;49.346;8.798;2022-12-05T05:56:17;54.67;;;22.10;;
61383;SDS011;63511;49.346;8.798;2022-12-05T05:58:46;53.13;;;21.83;;
61383;SDS011;63511;49.346;8.798;2022-12-05T06:01:17;55.90;;;22.30;;
61383;SDS011;63511;49.346;8.798;2022-12-05T06:03:46;56.05;;;21.45;;
61383;SDS011;63511;49.346;8.798;2022-12-05T06:06:17;55.58;;;23.20;;
61383;SDS011;63511;49.346;8.798;2022-12-05T06:08:44;65.80;;;23.88;;
61383;SDS011;63511;49.346;8.798;2022-12-05T06:11:13;58.28;;;22.30;;
61383;SDS011;63511;49.346;8.798;2022-12-05T06:13:40;60.50;;;23.45;;
61383;SDS011;63511;49.346;8.798;2022-12-05T06:16:09;61.17;;;25.65;;
61383;SDS011;63511;49.346;8.798;2022-12-05T06:18:36;56.90;;;23.63;;
61383;SDS011;63511;49.346;8.798;2022-12-05T06:21:02;68.03;;;25.38;;
61383;SDS011;63511;49.346;8.798;2022-12-05T06:23:29;53.90;;;23.00;;
61383;SDS011;63511;49.346;8.798;2022-12-05T06:25:55;72.82;;;24.88;;
61383;SDS011;63511;49.346;8.798;2022-12-05T06:28:23;68.70;;;23.67;;
61383;SDS011;63511;49.346;8.798;2022-12-05T06:30:52;67.15;;;25.00;;
61383;SDS011;63511;49.346;8.798;2022-12-05T06:33:17;65.63;;;23.42;;
61383;SDS011;63511;49.346;8.798;2022-12-05T06:35:45;67.45;;;23.10;;
61383;SDS011;63511;49.346;8.798;2022-12-05T06:38:15;61.00;;;22.98;;
61383;SDS011;63511;49.346;8.798;2022-12-05T06:40:45;66.50;;;26.73;;
61383;SDS011;63511;49.346;8.798;2022-12-05T06:43:12;66.38;;;25.45;;
61383;SDS011;63511;49.346;8.798;2022-12-05T06:45:38;67.80;;;27.58;;
61383;SDS011;63511;49.346;8.798;2022-12-05T06:48:06;64.28;;;24.60;;
61383;SDS011;63511;49.346;8.798;2022-12-05T06:50:33;56.85;;;24.42;;
61383;SDS011;63511;49.346;8.798;2022-12-05T06:52:59;61.00;;;23.75;;
61383;SDS011;63511;49.346;8.798;2022-12-05T06:55:26;56.33;;;23.73;;
61383;SDS011;63511;49.346;8.798;2022-12-05T06:57:54;66.43;;;25.48;;
61383;SDS011;63511;49.346;8.798;2022-12-05T07:00:19;64.55;;;25.40;;
61383;SDS011;63511;49.346;8.798;2022-12-05T07:03:03;60.63;;;24.23;;
61383;SDS011;63511;49.346;8.798;2022-12-05T07:05:28;59.97;;;23.15;;
61383;SDS011;63511;49.346;8.798;2022-12-05T07:07:54;59.20;;;24.00;;
61383;SDS011;63511;49.346;8.798;2022-12-05T07:10:19;61.85;;;25.00;;
61383;SDS011;63511;49.346;8.798;2022-12-05T07:12:44;61.38;;;24.25;;
61383;SDS011;63511;49.346;8.798;2022-12-05T07:15:10;59.35;;;23.50;;
61383;SDS011;63511;49.346;8.798;2022-12-05T07:17:36;57.00;;;24.45;;
61383;SDS011;63511;49.346;8.798;2022-12-05T07:20:03;62.35;;;22.98;;
61383;SDS011;63511;49.346;8.798;2022-12-05T07:22:30;60.00;;;24.80;;
61383;SDS011;63511;49.346;8.798;2022-12-05T07:24:55;57.63;;;22.70;;
61383;SDS011;63511;49.346;8.798;2022-12-05T07:27:21;61.70;;;24.92;;
61383;SDS011;63511;49.346;8.798;2022-12-05T07:29:47;56.03;;;23.35;;
61383;SDS011;63511;49.346;8.798;2022-12-05T07:32:14;54.92;;;22.08;;
61383;SDS011;63511;49.346;8.798;2022-12-05T07:34:40;53.47;;;24.02;;
61383;SDS011;63511;49.346;8.798;2022-12-05T07:37:06;45.40;;;20.75;;
61383;SDS011;63511;49.346;8.798;2022-12-05T07:39:33;59.95;;;22.67;;
61383;SDS011;63511;49.346;8.798;2022-12-05T07:41:59;62.38;;;22.38;;
61383;SDS011;63511;49.346;8.798;2022-12-05T07:44:24;60.40;;;23.02;;
61383;SDS011;63511;49.346;8.798;2022-12-05T07:46:49;55.30;;;23.98;;
61383;SDS011;63511;49.346;8.798;2022-12-05T07:49:15;54.78;;;22.00;;
61383;SDS011;63511;49.346;8.798;2022-12-05T07:51:40;50.63;;;21.70;;
61383;SDS011;63511;49.346;8.798;2022-12-05T07:54:05;48.78;;;21.63;;
61383;SDS011;63511;49.346;8.798;2022-12-05T07:56:31;49.25;;;20.75;;
61383;SDS011;63511;49.346;8.798;2022-12-05T07:58:56;53.17;;;21.50;;
61383;SDS011;63511;49.346;8.798;2022-12-05T08:01:23;49.58;;;22.52;;
61383;SDS011;63511;49.346;8.798;2022-12-05T08:03:51;50.78;;;20.48;;
61383;SDS011;63511;49.346;8.798;2022-12-05T08:06:18;51.78;;;22.05;;
61383;SDS011;63511;49.346;8.798;2022-12-05T08:08:45;47.72;;;20.92;;
61383;SDS011;63511;49.346;8.798;2022-12-05T08:11:19;48.03;;;19.85;;
61383;SDS011;63511;49.346;8.798;2022-12-05T08:13:52;44.70;;;21.13;;
61383;SDS011;63511;49.346;8.798;2022-12-05T08:16:22;42.92;;;20.80;;
61383;SDS011;63511;49.346;8.798;2022-12-05T08:18:53;50.17;;;23.50;;
61383;SDS011;63511;49.346;8.798;2022-12-05T08:21:26;49.67;;;24.20;;
61383;SDS011;63511;49.346;8.798;2022-12-05T08:23:52;47.08;;;21.88;;
61383;SDS011;63511;49.346;8.798;2022-12-05T08:26:28;50.33;;;21.88;;
61383;SDS011;63511;49.346;8.798;2022-12-05T08:28:58;46.42;;;22.17;;
61383;SDS011;63511;49.346;8.798;2022-12-05T08:31:26;46.40;;;22.23;;
61383;SDS011;63511;49.346;8.798;2022-12-05T08:33:55;44.70;;;19.85;;
61383;SDS011;63511;49.346;8.798;2022-12-05T08:36:21;44.35;;;20.02;;
61383;SDS011;63511;49.346;8.798;2022-12-05T08:38:54;38.28;;;19.45;;
61383;SDS011;63511;49.346;8.798;2022-12-05T08:41:23;44.08;;;20.77;;
61383;SDS011;63511;49.346;8.798;2022-12-05T08:43:52;42.97;;;20.15;;
61383;SDS011;63511;49.346;8.798;2022-12-05T08:46:18;43.80;;;20.98;;
61383;SDS011;63511;49.346;8.798;2022-12-05T08:48:44;43.58;;;21.42;;
61383;SDS011;63511;49.346;8.798;2022-12-05T08:51:11;42.65;;;19.33;;
61383;SDS011;63511;49.346;8.798;2022-12-05T08:53:38;41.72;;;20.55;;
61383;SDS011;63511;49.346;8.798;2022-12-05T08:56:04;43.13;;;21.80;;
61383;SDS011;63511;49.346;8.798;2022-12-05T08:58:34;48.85;;;19.67;;
61383;SDS011;63511;49.346;8.798;2022-12-05T09:01:07;44.08;;;20.88;;
61383;SDS011;63511;49.346;8.798;2022-12-05T09:03:34;42.47;;;19.40;;
61383;SDS011;63511;49.346;8.798;2022-12-05T09:08:35;38.85;;;18.58;;
61383;SDS011;63511;49.346;8.798;2022-12-05T09:11:36;43.67;;;20.17;;
61383;SDS011;63511;49.346;8.798;2022-12-05T09:13:55;38.45;;;19.10;;
61383;SDS011;63511;49.346;8.798;2022-12-05T09:16:23;43.80;;;18.88;;
61383;SDS011;63511;49.346;8.798;2022-12-05T09:18:53;38.67;;;18.88;;
61383;SDS011;63511;49.346;8.798;2022-12-05T09:21:23;40.38;;;21.27;;
61383;SDS011;63511;49.346;8.798;2022-12-05T09:23:52;41.42;;;19.83;;
61383;SDS011;63511;49.346;8.798;2022-12-05T09:26:19;41.00;;;19.92;;
61383;SDS011;63511;49.346;8.798;2022-12-05T09:28:47;40.42;;;19.63;;
61383;SDS011;63511;49.346;8.798;2022-12-05T09:31:13;47.83;;;20.52;;
61383;SDS011;63511;49.346;8.798;2022-12-05T09:33:41;45.95;;;21.05;;
61383;SDS011;63511;49.346;8.798;2022-12-05T09:36:08;37.35;;;19.83;;
61383;SDS011;63511;49.346;8.798;2022-12-05T09:38:37;43.33;;;19.00;;
61383;SDS011;63511;49.346;8.798;2022-12-05T09:44:15;39.92;;;19.48;;
61383;SDS011;63511;49.346;8.798;2022-12-05T09:50:13;41.90;;;20.55;;
61383;SDS011;63511;49.346;8.798;2022-12-05T09:55:23;44.25;;;21.23;;
61383;SDS011;63511;49.346;8.798;2022-12-05T09:57:55;49.28;;;21.75;;
61383;SDS011;63511;49.346;8.798;2022-12-05T10:00:22;38.45;;;19.10;;
61383;SDS011;63511;49.346;8.798;2022-12-05T10:03:11;41.47;;;19.83;;
61383;SDS011;63511;49.346;8.798;2022-12-05T10:17:30;35.67;;;18.60;;
61383;SDS011;63511;49.346;8.798;2022-12-05T10:20:00;43.47;;;21.13;;
61383;SDS011;63511;49.346;8.798;2022-12-05T10:25:12;36.38;;;19.17;;
61383;SDS011;63511;49.346;8.798;2022-12-05T10:27:46;33.58;;;18.65;;
61383;SDS011;63511;49.346;8.798;2022-12-05T10:30:23;39.63;;;19.88;;
61383;SDS011;63511;49.346;8.798;2022-12-05T10:32:58;39.50;;;19.13;;
61383;SDS011;63511;49.346;8.798;2022-12-05T10:38:04;37.35;;;19.65;;
61383;SDS011;63511;49.346;8.798;2022-12-05T10:40:38;31.95;;;17.75;;
61383;SDS011;63511;49.346;8.798;2022-12-05T10:43:06;38.05;;;19.63;;
61383;SDS011;63511;49.346;8.798;2022-12-05T10:45:40;38.20;;;18.73;;
61383;SDS011;63511;49.346;8.798;2022-12-05T10:48:08;37.97;;;18.60;;
61383;SDS011;63511;49.346;8.798;2022-12-05T10:50:37;35.85;;;18.60;;
61383;SDS011;63511;49.346;8.798;2022-12-05T10:53:04;37.08;;;18.77;;
61383;SDS011;63511;49.346;8.798;2022-12-05T10:55:35;35.97;;;17.73;;
61383;SDS011;63511;49.346;8.798;2022-12-05T11:00:40;36.47;;;20.27;;
61383;SDS011;63511;49.346;8.798;2022-12-05T11:03:43;38.53;;;19.90;;
61383;SDS011;63511;49.346;8.798;2022-12-05T11:09:02;33.40;;;18.42;;
61383;SDS011;63511;49.346;8.798;2022-12-05T11:11:29;41.42;;;18.95;;
61383;SDS011;63511;49.346;8.798;2022-12-05T11:16:55;36.75;;;19.25;;
61383;SDS011;63511;49.346;8.798;2022-12-05T11:19:35;40.58;;;19.63;;
61383;SDS011;63511;49.346;8.798;2022-12-05T11:22:08;35.47;;;19.17;;
61383;SDS011;63511;49.346;8.798;2022-12-05T11:24:51;35.45;;;18.55;;
61383;SDS011;63511;49.346;8.798;2022-12-05T11:27:29;40.20;;;19.45;;
61383;SDS011;63511;49.346;8.798;2022-12-05T11:29:59;34.58;;;19.75;;
61383;SDS011;63511;49.346;8.798;2022-12-05T11:32:29;43.43;;;18.47;;
61383;SDS011;63511;49.346;8.798;2022-12-05T11:40:27;38.60;;;17.98;;
61383;SDS011;63511;49.346;8.798;2022-12-05T11:46:48;34.35;;;17.83;;
61383;SDS011;63511;49.346;8.798;2022-12-05T11:51:40;34.88;;;19.30;;
61383;SDS011;63511;49.346;8.798;2022-12-05T11:54:38;47.83;;;19.40;;
61383;SDS011;63511;49.346;8.798;2022-12-05T11:59:48;40.33;;;18.52;;
61383;SDS011;63511;49.346;8.798;2022-12-05T12:10:21;37.42;;;19.73;;
61383;SDS011;63511;49.346;8.798;2022-12-05T12:13:10;35.45;;;19.55;;
61383;SDS011;63511;49.346;8.798;2022-12-05T12:16:09;37.00;;;19.30;;
61383;SDS011;63511;49.346;8.798;2022-12-05T12:21:57;31.85;;;17.60;;
61383;SDS011;63511;49.346;8.798;2022-12-05T12:40:31;32.00;;;16.80;;
61383;SDS011;63511;49.346;8.798;2022-12-05T12:51:28;35.22;;;17.88;;
61383;SDS011;63511;49.346;8.798;2022-12-05T12:54:01;34.72;;;18.58;;
61383;SDS011;63511;49.346;8.798;2022-12-05T13:02:14;35.63;;;17.97;;
61383;SDS011;63511;49.346;8.798;2022-12-05T13:04:52;32.28;;;18.20;;
61383;SDS011;63511;49.346;8.798;2022-12-05T13:07:28;35.17;;;17.52;;
61383;SDS011;63511;49.346;8.798;2022-12-05T13:10:11;31.60;;;16.57;;
61383;SDS011;63511;49.346;8.798;2022-12-05T13:12:44;32.65;;;17.05;;
61383;SDS011;63511;49.346;8.798;2022-12-05T13:17:36;34.97;;;20.05;;
61383;SDS011;63511;49.346;8.798;2022-12-05T13:20:20;31.10;;;17.85;;
61383;SDS011;63511;49.346;8.798;2022-12-05T13:22:49;34.97;;;20.02;;
61383;SDS011;63511;49.346;8.798;2022-12-05T13:25:20;40.83;;;18.67;;
61383;SDS011;63511;49.346;8.798;2022-12-05T13:28:00;34.10;;;18.17;;
61383;SDS011;63511;49.346;8.798;2022-12-05T13:30:32;33.35;;;16.92;;
61383;SDS011;63511;49.346;8.798;2022-12-05T13:33:18;31.83;;;16.48;;
61383;SDS011;63511;49.346;8.798;2022-12-05T13:38:37;35.17;;;17.60;;
61383;SDS011;63511;49.346;8.798;2022-12-05T13:41:29;26.83;;;15.88;;
61383;SDS011;63511;49.346;8.798;2022-12-05T13:44:30;31.15;;;17.55;;
61383;SDS011;63511;49.346;8.798;2022-12-05T13:47:00;31.10;;;16.17;;
61383;SDS011;63511;49.346;8.798;2022-12-05T13:49:42;39.17;;;17.90;;
61383;SDS011;63511;49.346;8.798;2022-12-05T13:52:15;36.33;;;17.88;;
61383;SDS011;63511;49.346;8.798;2022-12-05T14:00:42;28.85;;;16.88;;
61383;SDS011;63511;49.346;8.798;2022-12-05T14:05:46;27.45;;;14.63;;
61383;SDS011;63511;49.346;8.798;2022-12-05T14:15:49;20.48;;;11.90;;
61383;SDS011;63511;49.346;8.798;2022-12-05T14:21:23;19.80;;;11.35;;
61383;SDS011;63511;49.346;8.798;2022-12-05T14:23:57;18.25;;;11.05;;
61383;SDS011;63511;49.346;8.798;2022-12-05T14:37:54;21.35;;;11.88;;
61383;SDS011;63511;49.346;8.798;2022-12-05T14:43:06;24.25;;;12.65;;
61383;SDS011;63511;49.346;8.798;2022-12-05T14:50:49;21.47;;;11.63;;
61383;SDS011;63511;49.346;8.798;2022-12-05T15:07:01;24.88;;;13.95;;
61383;SDS011;63511;49.346;8.798;2022-12-05T15:15:23;26.08;;;13.70;;
61383;SDS011;63511;49.346;8.798;2022-12-05T15:17:59;22.67;;;12.82;;
61383;SDS011;63511;49.346;8.798;2022-12-05T15:22:55;21.92;;;11.88;;
61383;SDS011;63511;49.346;8.798;2022-12-05T15:25:30;20.27;;;11.18;;
61383;SDS011;63511;49.346;8.798;2022-12-05T15:30:41;16.27;;;11.00;;
61383;SDS011;63511;49.346;8.798;2022-12-05T15:33:09;23.08;;;11.50;;
61383;SDS011;63511;49.346;8.798;2022-12-05T15:35:38;20.50;;;11.40;;
61383;SDS011;63511;49.346;8.798;2022-12-05T15:38:06;22.92;;;12.05;;
61383;SDS011;63511;49.346;8.798;2022-12-05T15:40:45;20.27;;;11.37;;
61383;SDS011;63511;49.346;8.798;2022-12-05T15:43:31;17.23;;;10.40;;
61383;SDS011;63511;49.346;8.798;2022-12-05T15:46:08;18.35;;;9.75;;
61383;SDS011;63511;49.346;8.798;2022-12-05T15:48:51;13.77;;;8.48;;
61383;SDS011;63511;49.346;8.798;2022-12-05T15:51:34;19.38;;;9.48;;
61383;SDS011;63511;49.346;8.798;2022-12-05T15:54:06;17.85;;;9.07;;
61383;SDS011;63511;49.346;8.798;2022-12-05T15:56:41;13.55;;;8.00;;
61383;SDS011;63511;49.346;8.798;2022-12-05T15:59:17;13.10;;;7.88;;
61383;SDS011;63511;49.346;8.798;2022-12-05T16:01:49;15.30;;;7.93;;
61383;SDS011;63511;49.346;8.798;2022-12-05T16:04:30;16.58;;;8.63;;
61383;SDS011;63511;49.346;8.798;2022-12-05T16:07:05;15.93;;;8.25;;
61383;SDS011;63511;49.346;8.798;2022-12-05T16:09:38;16.27;;;8.52;;
61383;SDS011;63511;49.346;8.798;2022-12-05T16:14:59;13.68;;;9.07;;
61383;SDS011;63511;49.346;8.798;2022-12-05T16:17:28;16.17;;;9.48;;
61383;SDS011;63511;49.346;8.798;2022-12-05T16:22:47;19.95;;;9.98;;
61383;SDS011;63511;49.346;8.798;2022-12-05T16:25:16;17.27;;;9.75;;
61383;SDS011;63511;49.346;8.798;2022-12-05T16:30:32;21.45;;;9.93;;
61383;SDS011;63511;49.346;8.798;2022-12-05T16:33:00;14.90;;;9.93;;
61383;SDS011;63511;49.346;8.798;2022-12-05T16:38:03;23.38;;;12.95;;
61383;SDS011;63511;49.346;8.798;2022-12-05T16:40:31;23.63;;;14.27;;
61383;SDS011;63511;49.346;8.798;2022-12-05T16:43:04;24.83;;;13.75;;
61383;SDS011;63511;49.346;8.798;2022-12-05T16:45:51;27.05;;;14.90;;
61383;SDS011;63511;49.346;8.798;2022-12-05T16:48:28;23.63;;;13.80;;
61383;SDS011;63511;49.346;8.798;2022-12-05T16:53:38;28.88;;;14.05;;
61383;SDS011;63511;49.346;8.798;2022-12-05T16:56:15;25.15;;;14.70;;
61383;SDS011;63511;49.346;8.798;2022-12-05T16:58:43;20.13;;;11.32;;
61383;SDS011;63511;49.346;8.798;2022-12-05T17:01:14;21.98;;;11.30;;
61383;SDS011;63511;49.346;8.798;2022-12-05T17:03:44;19.17;;;11.32;;
61383;SDS011;63511;49.346;8.798;2022-12-05T17:06:11;21.92;;;12.38;;
61383;SDS011;63511;49.346;8.798;2022-12-05T17:08:38;23.15;;;13.48;;
61383;SDS011;63511;49.346;8.798;2022-12-05T17:11:14;26.38;;;14.13;;
61383;SDS011;63511;49.346;8.798;2022-12-05T17:13:48;19.88;;;10.18;;
61383;SDS011;63511;49.346;8.798;2022-12-05T17:16:15;20.98;;;11.15;;
61383;SDS011;63511;49.346;8.798;2022-12-05T17:18:41;22.10;;;12.23;;
61383;SDS011;63511;49.346;8.798;2022-12-05T17:21:09;24.23;;;12.10;;
61383;SDS011;63511;49.346;8.798;2022-12-05T17:23:38;27.35;;;14.85;;
61383;SDS011;63511;49.346;8.798;2022-12-05T17:26:04;29.00;;;16.10;;
61383;SDS011;63511;49.346;8.798;2022-12-05T17:28:31;28.15;;;13.88;;
61383;SDS011;63511;49.346;8.798;2022-12-05T17:30:57;23.88;;;14.13;;
61383;SDS011;63511;49.346;8.798;2022-12-05T17:33:22;30.23;;;12.48;;
61383;SDS011;63511;49.346;8.798;2022-12-05T17:35:49;15.55;;;10.55;;
61383;SDS011;63511;49.346;8.798;2022-12-05T17:38:16;21.45;;;12.50;;
61383;SDS011;63511;49.346;8.798;2022-12-05T17:40:42;20.17;;;12.35;;
61383;SDS011;63511;49.346;8.798;2022-12-05T17:43:11;23.15;;;13.07;;
61383;SDS011;63511;49.346;8.798;2022-12-05T17:45:42;21.98;;;12.35;;
61383;SDS011;63511;49.346;8.798;2022-12-05T17:48:11;16.75;;;10.20;;
61383;SDS011;63511;49.346;8.798;2022-12-05T17:50:38;16.33;;;10.13;;
61383;SDS011;63511;49.346;8.798;2022-12-05T17:53:04;18.23;;;10.40;;
61383;SDS011;63511;49.346;8.798;2022-12-05T17:55:33;20.27;;;12.90;;
61383;SDS011;63511;49.346;8.798;2022-12-05T17:58:00;18.73;;;11.63;;
61383;SDS011;63511;49.346;8.798;2022-12-05T18:00:28;19.77;;;10.98;;
61383;SDS011;63511;49.346;8.798;2022-12-05T18:02:53;20.88;;;11.32;;
61383;SDS011;63511;49.346;8.798;2022-12-05T18:05:18;18.05;;;11.05;;
61383;SDS011;63511;49.346;8.798;2022-12-05T18:07:44;23.65;;;12.90;;
61383;SDS011;63511;49.346;8.798;2022-12-05T18:10:10;67.70;;;35.63;;
61383;SDS011;63511;49.346;8.798;2022-12-05T18:12:38;21.90;;;14.50;;
61383;SDS011;63511;49.346;8.798;2022-12-05T18:15:04;31.05;;;15.95;;